This is the latest recevied weather packets stored in our database for station/object KK7MLS-13. If no packets are shown the sender has not sent any weather packets the latest 10 day(s).
| Time | Temp. | Humidity | Pressure | Rain* | Wind** | Luminosity | Snow |
|---|---|---|---|---|---|---|---|
| 1777210831 | 6.11° C | 77% | 1008.9 hPa | 0 mm | - | 12 W/m² | - |
| 1777210529 | 6.11° C | 77% | 1009.1 hPa | 0 mm | - | 10 W/m² | - |
| 1777210227 | 6.67° C | 75% | 1009 hPa | 0 mm | - | 9 W/m² | - |
| 1777209922 | 6.67° C | 75% | 1008.9 hPa | 0 mm | - | 7 W/m² | - |
| 1777209618 | 7.22° C | 72% | 1008.9 hPa | 0 mm | - | 5 W/m² | - |
| 1777209314 | 7.22° C | 71% | 1008.9 hPa | 0 mm | - | 4 W/m² | - |
| 1777209011 | 7.78° C | 69% | 1008.7 hPa | 0 mm | - | 2 W/m² | - |
| 1777208707 | 7.78° C | 70% | 1008.7 hPa | 0 mm | - | 1 W/m² | - |
| 1777208403 | 7.22° C | 70% | 1008.6 hPa | 0 mm | - | 1 W/m² | - |
| 1777208100 | 7.22° C | 73% | 1008.4 hPa | 0 mm | - | 0 W/m² | - |
| 1777207795 | 6.67° C | 74% | 1008.6 hPa | 0 mm | - | 0 W/m² | - |
| 1777207495 | 6.67° C | 75% | 1008.5 hPa | 0 mm | - | 0 W/m² | - |
| 1777207195 | 6.67° C | 75% | 1008.5 hPa | 0 mm | - | 0 W/m² | - |
| 1777206891 | 6.67° C | 74% | 1008.4 hPa | 0 mm | - | 0 W/m² | - |
| 1777206586 | 6.67° C | 75% | 1008.5 hPa | 0 mm | - | 0 W/m² | - |
| 1777206287 | 6.67° C | 74% | 1008.4 hPa | 0 mm | - | 0 W/m² | - |
| 1777205982 | 6.67° C | 74% | 1008.5 hPa | 0 mm | - | 0 W/m² | - |
| 1777205679 | 6.11° C | 76% | 1008.4 hPa | 0 mm | - | 0 W/m² | - |
| 1777205376 | 6.11° C | 76% | 1008.5 hPa | 0 mm | - | 0 W/m² | - |
| 1777205071 | 6.67° C | 75% | 1008.4 hPa | 0 mm | - | 0 W/m² | - |
| 1777204767 | 6.67° C | 75% | 1008.6 hPa | 0 mm | - | 0 W/m² | - |
| 1777204462 | 6.67° C | 73% | 1008.5 hPa | 0 mm | - | 0 W/m² | - |
| 1777204159 | 6.67° C | 73% | 1008.6 hPa | 0 mm | - | 0 W/m² | - |
| 1777203855 | 7.22° C | 72% | 1008.3 hPa | 0 mm | - | 0 W/m² | - |
| 1777203555 | 7.22° C | 72% | 1008.4 hPa | 0 mm | - | 0 W/m² | - |
* Rain latest hour (hover to see other rain measurements)
** Current wind speed in m/s (hover to see current wind gust speed)